sensor_id;sensor_type;location;lat;lon;timestamp;P1;durP1;ratioP1;P2;durP2;ratioP2
75746;SDS011;70632;52.232;21.038;2023-11-19T00:00:50;54.20;;;21.83;;
75746;SDS011;70632;52.232;21.038;2023-11-19T00:03:36;51.03;;;21.45;;
75746;SDS011;70632;52.232;21.038;2023-11-19T00:06:02;49.78;;;20.52;;
75746;SDS011;70632;52.232;21.038;2023-11-19T00:08:29;54.28;;;24.90;;
75746;SDS011;70632;52.232;21.038;2023-11-19T00:10:55;53.42;;;24.08;;
75746;SDS011;70632;52.232;21.038;2023-11-19T00:13:21;57.60;;;22.48;;
75746;SDS011;70632;52.232;21.038;2023-11-19T00:15:48;53.80;;;23.67;;
75746;SDS011;70632;52.232;21.038;2023-11-19T00:18:14;54.30;;;23.27;;
75746;SDS011;70632;52.232;21.038;2023-11-19T00:20:40;57.05;;;22.10;;
75746;SDS011;70632;52.232;21.038;2023-11-19T00:23:05;59.05;;;25.20;;
75746;SDS011;70632;52.232;21.038;2023-11-19T00:25:31;54.42;;;21.98;;
75746;SDS011;70632;52.232;21.038;2023-11-19T00:27:57;58.70;;;22.40;;
75746;SDS011;70632;52.232;21.038;2023-11-19T00:30:23;58.78;;;22.42;;
75746;SDS011;70632;52.232;21.038;2023-11-19T00:32:49;56.95;;;21.38;;
75746;SDS011;70632;52.232;21.038;2023-11-19T00:35:16;55.15;;;21.55;;
75746;SDS011;70632;52.232;21.038;2023-11-19T00:37:41;54.53;;;22.27;;
75746;SDS011;70632;52.232;21.038;2023-11-19T00:40:15;54.13;;;21.48;;
75746;SDS011;70632;52.232;21.038;2023-11-19T00:42:42;54.10;;;22.92;;
75746;SDS011;70632;52.232;21.038;2023-11-19T00:45:08;65.75;;;23.58;;
75746;SDS011;70632;52.232;21.038;2023-11-19T00:47:35;57.90;;;23.02;;
75746;SDS011;70632;52.232;21.038;2023-11-19T00:50:02;71.03;;;26.00;;
75746;SDS011;70632;52.232;21.038;2023-11-19T00:52:28;67.05;;;25.98;;
75746;SDS011;70632;52.232;21.038;2023-11-19T00:54:54;62.15;;;24.42;;
75746;SDS011;70632;52.232;21.038;2023-11-19T00:57:19;66.00;;;25.48;;
75746;SDS011;70632;52.232;21.038;2023-11-19T00:59:45;66.97;;;25.50;;
75746;SDS011;70632;52.232;21.038;2023-11-19T01:02:12;61.78;;;25.58;;
75746;SDS011;70632;52.232;21.038;2023-11-19T01:04:39;69.68;;;26.42;;
75746;SDS011;70632;52.232;21.038;2023-11-19T01:07:05;62.35;;;25.25;;
75746;SDS011;70632;52.232;21.038;2023-11-19T01:09:32;60.47;;;25.10;;
75746;SDS011;70632;52.232;21.038;2023-11-19T01:12:00;62.75;;;26.15;;
75746;SDS011;70632;52.232;21.038;2023-11-19T01:14:29;67.10;;;25.92;;
75746;SDS011;70632;52.232;21.038;2023-11-19T01:16:55;70.70;;;25.35;;
75746;SDS011;70632;52.232;21.038;2023-11-19T01:19:21;65.85;;;25.35;;
75746;SDS011;70632;52.232;21.038;2023-11-19T01:21:48;70.55;;;25.60;;
75746;SDS011;70632;52.232;21.038;2023-11-19T01:24:14;62.05;;;26.40;;
75746;SDS011;70632;52.232;21.038;2023-11-19T01:26:41;57.97;;;25.05;;
75746;SDS011;70632;52.232;21.038;2023-11-19T01:29:13;50.47;;;22.20;;
75746;SDS011;70632;52.232;21.038;2023-11-19T01:31:40;64.70;;;24.63;;
75746;SDS011;70632;52.232;21.038;2023-11-19T01:34:09;60.05;;;23.63;;
75746;SDS011;70632;52.232;21.038;2023-11-19T01:36:36;61.95;;;23.15;;
75746;SDS011;70632;52.232;21.038;2023-11-19T01:39:06;62.30;;;23.90;;
75746;SDS011;70632;52.232;21.038;2023-11-19T01:41:35;58.78;;;23.35;;
75746;SDS011;70632;52.232;21.038;2023-11-19T01:44:01;52.28;;;21.88;;
75746;SDS011;70632;52.232;21.038;2023-11-19T01:46:27;60.10;;;23.52;;
75746;SDS011;70632;52.232;21.038;2023-11-19T01:48:57;63.17;;;24.38;;
75746;SDS011;70632;52.232;21.038;2023-11-19T01:51:22;55.03;;;22.58;;
75746;SDS011;70632;52.232;21.038;2023-11-19T01:53:49;55.95;;;22.73;;
75746;SDS011;70632;52.232;21.038;2023-11-19T01:56:18;58.38;;;22.92;;
75746;SDS011;70632;52.232;21.038;2023-11-19T01:58:45;60.15;;;23.35;;
75746;SDS011;70632;52.232;21.038;2023-11-19T02:01:13;57.25;;;22.23;;
75746;SDS011;70632;52.232;21.038;2023-11-19T02:03:40;61.33;;;22.70;;
75746;SDS011;70632;52.232;21.038;2023-11-19T02:06:06;55.95;;;21.90;;
75746;SDS011;70632;52.232;21.038;2023-11-19T02:08:32;45.08;;;19.17;;
75746;SDS011;70632;52.232;21.038;2023-11-19T02:10:59;54.03;;;21.27;;
75746;SDS011;70632;52.232;21.038;2023-11-19T02:13:25;50.20;;;18.90;;
75746;SDS011;70632;52.232;21.038;2023-11-19T02:15:51;53.90;;;19.58;;
75746;SDS011;70632;52.232;21.038;2023-11-19T02:18:21;49.03;;;20.20;;
75746;SDS011;70632;52.232;21.038;2023-11-19T02:20:53;55.65;;;20.13;;
75746;SDS011;70632;52.232;21.038;2023-11-19T02:23:20;53.58;;;20.23;;
75746;SDS011;70632;52.232;21.038;2023-11-19T02:26:03;52.50;;;22.02;;
75746;SDS011;70632;52.232;21.038;2023-11-19T02:28:39;53.92;;;20.90;;
75746;SDS011;70632;52.232;21.038;2023-11-19T02:31:07;54.80;;;20.67;;
75746;SDS011;70632;52.232;21.038;2023-11-19T02:33:36;60.42;;;22.33;;
75746;SDS011;70632;52.232;21.038;2023-11-19T02:36:05;59.17;;;22.17;;
75746;SDS011;70632;52.232;21.038;2023-11-19T02:38:33;62.47;;;24.48;;
75746;SDS011;70632;52.232;21.038;2023-11-19T02:41:00;58.92;;;22.48;;
75746;SDS011;70632;52.232;21.038;2023-11-19T02:43:28;62.65;;;22.90;;
75746;SDS011;70632;52.232;21.038;2023-11-19T02:45:56;54.92;;;21.38;;
75746;SDS011;70632;52.232;21.038;2023-11-19T02:48:22;54.95;;;22.90;;
75746;SDS011;70632;52.232;21.038;2023-11-19T02:50:48;60.15;;;22.38;;
75746;SDS011;70632;52.232;21.038;2023-11-19T02:53:14;55.15;;;21.40;;
75746;SDS011;70632;52.232;21.038;2023-11-19T02:55:41;59.25;;;21.20;;
75746;SDS011;70632;52.232;21.038;2023-11-19T02:58:17;65.38;;;21.88;;
75746;SDS011;70632;52.232;21.038;2023-11-19T03:00:48;58.40;;;21.48;;
75746;SDS011;70632;52.232;21.038;2023-11-19T03:03:19;55.38;;;20.98;;
75746;SDS011;70632;52.232;21.038;2023-11-19T03:05:47;57.75;;;21.15;;
75746;SDS011;70632;52.232;21.038;2023-11-19T03:08:14;62.97;;;21.73;;
75746;SDS011;70632;52.232;21.038;2023-11-19T03:10:41;62.78;;;24.13;;
75746;SDS011;70632;52.232;21.038;2023-11-19T03:13:10;59.85;;;21.90;;
75746;SDS011;70632;52.232;21.038;2023-11-19T03:15:38;59.30;;;21.05;;
75746;SDS011;70632;52.232;21.038;2023-11-19T03:18:04;53.05;;;19.75;;
75746;SDS011;70632;52.232;21.038;2023-11-19T03:20:29;63.00;;;21.80;;
75746;SDS011;70632;52.232;21.038;2023-11-19T03:22:55;61.22;;;22.08;;
75746;SDS011;70632;52.232;21.038;2023-11-19T03:25:24;54.58;;;19.88;;
75746;SDS011;70632;52.232;21.038;2023-11-19T03:27:52;61.97;;;21.50;;
75746;SDS011;70632;52.232;21.038;2023-11-19T03:30:18;59.63;;;20.63;;
75746;SDS011;70632;52.232;21.038;2023-11-19T03:32:46;56.97;;;21.48;;
75746;SDS011;70632;52.232;21.038;2023-11-19T03:35:12;52.55;;;20.27;;
75746;SDS011;70632;52.232;21.038;2023-11-19T03:37:37;59.67;;;20.67;;
75746;SDS011;70632;52.232;21.038;2023-11-19T03:40:05;59.67;;;20.67;;
75746;SDS011;70632;52.232;21.038;2023-11-19T03:42:31;52.97;;;19.73;;
75746;SDS011;70632;52.232;21.038;2023-11-19T03:44:57;56.80;;;19.35;;
75746;SDS011;70632;52.232;21.038;2023-11-19T03:47:23;55.42;;;20.30;;
75746;SDS011;70632;52.232;21.038;2023-11-19T03:49:49;58.80;;;24.15;;
75746;SDS011;70632;52.232;21.038;2023-11-19T03:52:16;63.13;;;23.10;;
75746;SDS011;70632;52.232;21.038;2023-11-19T03:54:42;63.38;;;22.67;;
75746;SDS011;70632;52.232;21.038;2023-11-19T03:57:09;63.72;;;21.80;;
75746;SDS011;70632;52.232;21.038;2023-11-19T03:59:37;57.47;;;21.17;;
75746;SDS011;70632;52.232;21.038;2023-11-19T04:02:03;49.80;;;20.33;;
75746;SDS011;70632;52.232;21.038;2023-11-19T04:04:29;57.03;;;20.75;;
75746;SDS011;70632;52.232;21.038;2023-11-19T04:06:55;56.88;;;20.05;;
75746;SDS011;70632;52.232;21.038;2023-11-19T04:09:21;57.97;;;20.45;;
75746;SDS011;70632;52.232;21.038;2023-11-19T04:11:47;54.95;;;18.90;;
75746;SDS011;70632;52.232;21.038;2023-11-19T04:14:13;61.78;;;23.52;;
75746;SDS011;70632;52.232;21.038;2023-11-19T04:16:40;52.28;;;20.73;;
75746;SDS011;70632;52.232;21.038;2023-11-19T04:19:06;60.10;;;20.42;;
75746;SDS011;70632;52.232;21.038;2023-11-19T04:21:32;61.05;;;20.10;;
75746;SDS011;70632;52.232;21.038;2023-11-19T04:23:58;60.25;;;21.00;;
75746;SDS011;70632;52.232;21.038;2023-11-19T04:26:24;53.92;;;19.35;;
75746;SDS011;70632;52.232;21.038;2023-11-19T04:28:50;58.38;;;20.15;;
75746;SDS011;70632;52.232;21.038;2023-11-19T04:31:16;55.17;;;20.45;;
75746;SDS011;70632;52.232;21.038;2023-11-19T04:33:42;53.47;;;20.30;;
75746;SDS011;70632;52.232;21.038;2023-11-19T04:36:09;56.15;;;20.50;;
75746;SDS011;70632;52.232;21.038;2023-11-19T04:38:35;53.97;;;18.45;;
75746;SDS011;70632;52.232;21.038;2023-11-19T04:41:01;59.85;;;19.98;;
75746;SDS011;70632;52.232;21.038;2023-11-19T04:43:27;53.70;;;19.48;;
75746;SDS011;70632;52.232;21.038;2023-11-19T04:45:53;46.08;;;17.77;;
75746;SDS011;70632;52.232;21.038;2023-11-19T04:48:19;51.70;;;18.83;;
75746;SDS011;70632;52.232;21.038;2023-11-19T04:50:44;56.30;;;19.52;;
75746;SDS011;70632;52.232;21.038;2023-11-19T04:53:10;55.20;;;20.70;;
75746;SDS011;70632;52.232;21.038;2023-11-19T04:55:37;62.58;;;19.73;;
75746;SDS011;70632;52.232;21.038;2023-11-19T04:58:03;52.38;;;18.05;;
75746;SDS011;70632;52.232;21.038;2023-11-19T05:00:28;60.17;;;20.38;;
75746;SDS011;70632;52.232;21.038;2023-11-19T05:02:55;51.42;;;19.40;;
75746;SDS011;70632;52.232;21.038;2023-11-19T05:05:20;55.42;;;20.98;;
75746;SDS011;70632;52.232;21.038;2023-11-19T05:07:46;48.78;;;17.90;;
75746;SDS011;70632;52.232;21.038;2023-11-19T05:10:12;57.38;;;19.23;;
75746;SDS011;70632;52.232;21.038;2023-11-19T05:12:38;52.67;;;17.90;;
75746;SDS011;70632;52.232;21.038;2023-11-19T05:15:04;51.40;;;18.85;;
75746;SDS011;70632;52.232;21.038;2023-11-19T05:17:30;47.70;;;18.50;;
75746;SDS011;70632;52.232;21.038;2023-11-19T05:19:56;55.65;;;18.95;;
75746;SDS011;70632;52.232;21.038;2023-11-19T05:22:22;54.53;;;18.98;;
75746;SDS011;70632;52.232;21.038;2023-11-19T05:24:48;54.38;;;18.08;;
75746;SDS011;70632;52.232;21.038;2023-11-19T05:27:14;53.15;;;19.65;;
75746;SDS011;70632;52.232;21.038;2023-11-19T05:29:40;55.35;;;21.38;;
75746;SDS011;70632;52.232;21.038;2023-11-19T05:32:07;49.25;;;19.10;;
75746;SDS011;70632;52.232;21.038;2023-11-19T05:34:32;46.40;;;17.70;;
75746;SDS011;70632;52.232;21.038;2023-11-19T05:36:58;53.15;;;18.25;;
75746;SDS011;70632;52.232;21.038;2023-11-19T05:39:24;48.70;;;16.92;;
75746;SDS011;70632;52.232;21.038;2023-11-19T05:41:50;50.80;;;16.83;;
75746;SDS011;70632;52.232;21.038;2023-11-19T05:44:16;43.80;;;16.27;;
75746;SDS011;70632;52.232;21.038;2023-11-19T05:46:42;45.30;;;16.63;;
75746;SDS011;70632;52.232;21.038;2023-11-19T05:49:10;44.05;;;16.20;;
75746;SDS011;70632;52.232;21.038;2023-11-19T05:51:36;46.38;;;16.50;;
75746;SDS011;70632;52.232;21.038;2023-11-19T05:54:06;43.72;;;15.05;;
75746;SDS011;70632;52.232;21.038;2023-11-19T05:56:33;40.13;;;15.10;;
75746;SDS011;70632;52.232;21.038;2023-11-19T05:58:59;43.80;;;16.42;;
75746;SDS011;70632;52.232;21.038;2023-11-19T06:01:26;44.22;;;16.83;;
75746;SDS011;70632;52.232;21.038;2023-11-19T06:03:52;42.50;;;17.58;;
75746;SDS011;70632;52.232;21.038;2023-11-19T06:06:18;45.83;;;15.50;;
75746;SDS011;70632;52.232;21.038;2023-11-19T06:08:44;39.72;;;14.45;;
75746;SDS011;70632;52.232;21.038;2023-11-19T06:11:10;48.17;;;16.92;;
75746;SDS011;70632;52.232;21.038;2023-11-19T06:13:40;39.80;;;14.95;;
75746;SDS011;70632;52.232;21.038;2023-11-19T06:16:06;36.75;;;14.23;;
75746;SDS011;70632;52.232;21.038;2023-11-19T06:18:32;33.53;;;12.20;;
75746;SDS011;70632;52.232;21.038;2023-11-19T06:20:58;36.63;;;13.20;;
75746;SDS011;70632;52.232;21.038;2023-11-19T06:23:23;30.13;;;13.02;;
75746;SDS011;70632;52.232;21.038;2023-11-19T06:25:49;28.60;;;12.13;;
75746;SDS011;70632;52.232;21.038;2023-11-19T06:28:15;33.85;;;12.48;;
75746;SDS011;70632;52.232;21.038;2023-11-19T06:30:40;31.92;;;12.95;;
75746;SDS011;70632;52.232;21.038;2023-11-19T06:33:06;32.35;;;12.65;;
75746;SDS011;70632;52.232;21.038;2023-11-19T06:35:32;36.15;;;13.73;;
75746;SDS011;70632;52.232;21.038;2023-11-19T06:38:02;34.88;;;13.05;;
75746;SDS011;70632;52.232;21.038;2023-11-19T06:40:30;30.92;;;13.18;;
75746;SDS011;70632;52.232;21.038;2023-11-19T06:42:56;35.50;;;13.60;;
75746;SDS011;70632;52.232;21.038;2023-11-19T06:45:22;31.40;;;12.40;;
75746;SDS011;70632;52.232;21.038;2023-11-19T06:47:48;34.90;;;12.60;;
75746;SDS011;70632;52.232;21.038;2023-11-19T06:50:13;30.67;;;12.55;;
75746;SDS011;70632;52.232;21.038;2023-11-19T06:52:40;28.85;;;10.85;;
75746;SDS011;70632;52.232;21.038;2023-11-19T06:55:06;27.23;;;9.80;;
75746;SDS011;70632;52.232;21.038;2023-11-19T06:57:32;23.80;;;10.52;;
75746;SDS011;70632;52.232;21.038;2023-11-19T07:00:01;24.40;;;10.13;;
75746;SDS011;70632;52.232;21.038;2023-11-19T07:02:27;22.33;;;9.48;;
75746;SDS011;70632;52.232;21.038;2023-11-19T07:04:52;26.80;;;10.50;;
75746;SDS011;70632;52.232;21.038;2023-11-19T07:07:18;24.08;;;9.93;;
75746;SDS011;70632;52.232;21.038;2023-11-19T07:09:45;23.90;;;9.65;;
75746;SDS011;70632;52.232;21.038;2023-11-19T07:12:11;16.40;;;7.43;;
75746;SDS011;70632;52.232;21.038;2023-11-19T07:14:38;20.73;;;8.63;;
75746;SDS011;70632;52.232;21.038;2023-11-19T07:17:04;20.80;;;9.95;;
75746;SDS011;70632;52.232;21.038;2023-11-19T07:19:29;20.75;;;9.40;;
75746;SDS011;70632;52.232;21.038;2023-11-19T07:21:55;20.67;;;8.35;;
75746;SDS011;70632;52.232;21.038;2023-11-19T07:24:21;22.00;;;8.82;;
75746;SDS011;70632;52.232;21.038;2023-11-19T07:26:47;25.45;;;10.63;;
75746;SDS011;70632;52.232;21.038;2023-11-19T07:29:14;22.65;;;10.60;;
75746;SDS011;70632;52.232;21.038;2023-11-19T07:31:44;21.27;;;9.65;;
75746;SDS011;70632;52.232;21.038;2023-11-19T07:34:10;20.85;;;8.80;;
75746;SDS011;70632;52.232;21.038;2023-11-19T07:36:37;21.00;;;9.90;;
75746;SDS011;70632;52.232;21.038;2023-11-19T07:39:03;17.77;;;8.70;;
75746;SDS011;70632;52.232;21.038;2023-11-19T07:41:33;23.05;;;9.30;;
75746;SDS011;70632;52.232;21.038;2023-11-19T07:44:00;20.35;;;9.98;;
75746;SDS011;70632;52.232;21.038;2023-11-19T07:46:26;21.58;;;9.88;;
75746;SDS011;70632;52.232;21.038;2023-11-19T07:48:52;19.85;;;9.13;;
75746;SDS011;70632;52.232;21.038;2023-11-19T07:51:18;26.70;;;11.63;;
75746;SDS011;70632;52.232;21.038;2023-11-19T07:53:44;22.45;;;9.60;;
75746;SDS011;70632;52.232;21.038;2023-11-19T07:56:10;22.80;;;10.68;;
75746;SDS011;70632;52.232;21.038;2023-11-19T07:58:36;24.05;;;9.95;;
75746;SDS011;70632;52.232;21.038;2023-11-19T08:01:02;23.50;;;10.52;;
75746;SDS011;70632;52.232;21.038;2023-11-19T08:03:28;18.73;;;8.93;;
75746;SDS011;70632;52.232;21.038;2023-11-19T08:05:55;23.83;;;9.70;;
75746;SDS011;70632;52.232;21.038;2023-11-19T08:10:50;20.75;;;9.35;;
75746;SDS011;70632;52.232;21.038;2023-11-19T08:13:19;19.90;;;9.23;;
75746;SDS011;70632;52.232;21.038;2023-11-19T08:15:45;23.83;;;10.00;;
75746;SDS011;70632;52.232;21.038;2023-11-19T08:18:12;21.98;;;10.20;;
75746;SDS011;70632;52.232;21.038;2023-11-19T08:20:38;24.05;;;10.77;;
75746;SDS011;70632;52.232;21.038;2023-11-19T08:23:04;22.40;;;10.93;;
75746;SDS011;70632;52.232;21.038;2023-11-19T08:25:30;22.83;;;9.50;;
75746;SDS011;70632;52.232;21.038;2023-11-19T08:27:56;23.83;;;10.70;;
75746;SDS011;70632;52.232;21.038;2023-11-19T08:30:22;27.55;;;10.07;;
75746;SDS011;70632;52.232;21.038;2023-11-19T08:32:50;26.77;;;10.93;;
75746;SDS011;70632;52.232;21.038;2023-11-19T08:35:16;27.02;;;12.07;;
75746;SDS011;70632;52.232;21.038;2023-11-19T08:37:41;27.02;;;10.93;;
75746;SDS011;70632;52.232;21.038;2023-11-19T08:40:07;26.10;;;9.85;;
75746;SDS011;70632;52.232;21.038;2023-11-19T08:42:34;24.05;;;10.63;;
75746;SDS011;70632;52.232;21.038;2023-11-19T08:45:00;22.55;;;9.48;;
75746;SDS011;70632;52.232;21.038;2023-11-19T08:47:26;21.35;;;9.10;;
75746;SDS011;70632;52.232;21.038;2023-11-19T08:49:52;25.10;;;11.25;;
75746;SDS011;70632;52.232;21.038;2023-11-19T08:52:18;26.85;;;11.30;;
75746;SDS011;70632;52.232;21.038;2023-11-19T08:54:44;21.98;;;9.30;;
75746;SDS011;70632;52.232;21.038;2023-11-19T08:57:09;21.27;;;9.65;;
75746;SDS011;70632;52.232;21.038;2023-11-19T08:59:35;21.88;;;10.27;;
75746;SDS011;70632;52.232;21.038;2023-11-19T09:02:03;25.40;;;11.05;;
75746;SDS011;70632;52.232;21.038;2023-11-19T09:04:33;23.45;;;9.90;;
75746;SDS011;70632;52.232;21.038;2023-11-19T09:06:59;25.05;;;10.70;;
75746;SDS011;70632;52.232;21.038;2023-11-19T09:09:25;25.38;;;10.35;;
75746;SDS011;70632;52.232;21.038;2023-11-19T09:11:50;24.15;;;10.55;;
75746;SDS011;70632;52.232;21.038;2023-11-19T09:14:16;24.02;;;10.80;;
75746;SDS011;70632;52.232;21.038;2023-11-19T09:16:43;28.15;;;12.57;;
75746;SDS011;70632;52.232;21.038;2023-11-19T09:19:09;26.08;;;11.57;;
75746;SDS011;70632;52.232;21.038;2023-11-19T09:21:35;26.73;;;10.23;;
75746;SDS011;70632;52.232;21.038;2023-11-19T09:24:04;23.67;;;9.68;;
75746;SDS011;70632;52.232;21.038;2023-11-19T09:26:30;21.65;;;9.45;;
75746;SDS011;70632;52.232;21.038;2023-11-19T09:28:56;25.35;;;11.13;;
75746;SDS011;70632;52.232;21.038;2023-11-19T09:31:22;21.85;;;9.38;;
75746;SDS011;70632;52.232;21.038;2023-11-19T09:33:51;21.08;;;10.35;;
75746;SDS011;70632;52.232;21.038;2023-11-19T09:36:17;23.73;;;10.90;;
75746;SDS011;70632;52.232;21.038;2023-11-19T09:38:43;23.58;;;9.88;;
75746;SDS011;70632;52.232;21.038;2023-11-19T09:41:10;24.38;;;11.73;;
75746;SDS011;70632;52.232;21.038;2023-11-19T09:43:39;21.30;;;11.23;;
75746;SDS011;70632;52.232;21.038;2023-11-19T09:46:05;23.80;;;10.32;;
75746;SDS011;70632;52.232;21.038;2023-11-19T09:48:33;26.52;;;10.90;;
75746;SDS011;70632;52.232;21.038;2023-11-19T09:51:01;27.20;;;11.38;;
75746;SDS011;70632;52.232;21.038;2023-11-19T09:53:27;20.75;;;10.43;;
75746;SDS011;70632;52.232;21.038;2023-11-19T09:55:53;24.73;;;10.68;;
75746;SDS011;70632;52.232;21.038;2023-11-19T09:58:21;22.10;;;11.15;;
75746;SDS011;70632;52.232;21.038;2023-11-19T10:00:47;23.30;;;10.60;;
75746;SDS011;70632;52.232;21.038;2023-11-19T10:03:14;26.75;;;11.57;;
75746;SDS011;70632;52.232;21.038;2023-11-19T10:05:39;30.08;;;11.43;;
75746;SDS011;70632;52.232;21.038;2023-11-19T10:08:06;20.00;;;9.93;;
75746;SDS011;70632;52.232;21.038;2023-11-19T10:10:35;25.83;;;11.05;;
75746;SDS011;70632;52.232;21.038;2023-11-19T10:13:01;29.65;;;12.60;;
75746;SDS011;70632;52.232;21.038;2023-11-19T10:15:27;24.67;;;11.63;;
75746;SDS011;70632;52.232;21.038;2023-11-19T10:17:56;30.48;;;11.68;;
75746;SDS011;70632;52.232;21.038;2023-11-19T10:20:22;25.58;;;10.85;;
75746;SDS011;70632;52.232;21.038;2023-11-19T10:22:50;27.15;;;11.43;;
75746;SDS011;70632;52.232;21.038;2023-11-19T10:25:21;24.50;;;11.55;;
75746;SDS011;70632;52.232;21.038;2023-11-19T10:27:51;31.15;;;13.35;;
75746;SDS011;70632;52.232;21.038;2023-11-19T10:30:19;28.17;;;12.93;;
75746;SDS011;70632;52.232;21.038;2023-11-19T10:32:58;30.63;;;12.85;;
75746;SDS011;70632;52.232;21.038;2023-11-19T10:35:29;30.45;;;13.02;;
75746;SDS011;70632;52.232;21.038;2023-11-19T10:37:55;29.08;;;12.98;;
75746;SDS011;70632;52.232;21.038;2023-11-19T10:40:20;29.88;;;13.57;;
75746;SDS011;70632;52.232;21.038;2023-11-19T10:42:47;20.77;;;10.13;;
75746;SDS011;70632;52.232;21.038;2023-11-19T10:45:22;26.08;;;11.07;;
75746;SDS011;70632;52.232;21.038;2023-11-19T10:47:51;25.83;;;11.48;;
75746;SDS011;70632;52.232;21.038;2023-11-19T10:50:17;26.65;;;11.43;;
75746;SDS011;70632;52.232;21.038;2023-11-19T10:52:49;25.80;;;10.98;;
75746;SDS011;70632;52.232;21.038;2023-11-19T10:55:20;30.17;;;13.32;;
75746;SDS011;70632;52.232;21.038;2023-11-19T10:57:53;33.83;;;11.98;;
75746;SDS011;70632;52.232;21.038;2023-11-19T11:00:25;30.27;;;12.68;;
75746;SDS011;70632;52.232;21.038;2023-11-19T11:02:55;29.60;;;12.38;;
75746;SDS011;70632;52.232;21.038;2023-11-19T11:05:25;27.02;;;11.98;;
75746;SDS011;70632;52.232;21.038;2023-11-19T11:07:52;32.25;;;11.43;;
75746;SDS011;70632;52.232;21.038;2023-11-19T11:10:20;27.20;;;11.52;;
75746;SDS011;70632;52.232;21.038;2023-11-19T11:12:51;26.30;;;11.60;;
75746;SDS011;70632;52.232;21.038;2023-11-19T11:15:22;28.40;;;12.05;;
75746;SDS011;70632;52.232;21.038;2023-11-19T11:17:53;30.80;;;13.55;;
75746;SDS011;70632;52.232;21.038;2023-11-19T11:20:27;29.52;;;12.05;;
75746;SDS011;70632;52.232;21.038;2023-11-19T11:31:36;26.55;;;11.07;;
75746;SDS011;70632;52.232;21.038;2023-11-19T11:39:42;26.33;;;10.23;;
75746;SDS011;70632;52.232;21.038;2023-11-19T11:50:16;29.38;;;12.25;;
75746;SDS011;70632;52.232;21.038;2023-11-19T11:55:39;25.10;;;11.18;;
75746;SDS011;70632;52.232;21.038;2023-11-19T11:58:40;24.85;;;11.18;;
75746;SDS011;70632;52.232;21.038;2023-11-19T12:01:07;24.30;;;11.07;;
75746;SDS011;70632;52.232;21.038;2023-11-19T12:03:34;31.08;;;11.95;;
75746;SDS011;70632;52.232;21.038;2023-11-19T12:06:03;28.90;;;11.63;;
75746;SDS011;70632;52.232;21.038;2023-11-19T12:08:29;23.70;;;9.15;;
75746;SDS011;70632;52.232;21.038;2023-11-19T12:10:56;22.88;;;11.18;;
75746;SDS011;70632;52.232;21.038;2023-11-19T12:13:23;31.67;;;12.93;;
75746;SDS011;70632;52.232;21.038;2023-11-19T12:18:22;32.88;;;11.68;;
75746;SDS011;70632;52.232;21.038;2023-11-19T12:20:52;33.00;;;12.32;;
75746;SDS011;70632;52.232;21.038;2023-11-19T12:23:18;28.70;;;11.50;;
75746;SDS011;70632;52.232;21.038;2023-11-19T12:25:44;27.45;;;11.38;;
75746;SDS011;70632;52.232;21.038;2023-11-19T12:28:14;26.60;;;11.32;;
75746;SDS011;70632;52.232;21.038;2023-11-19T12:30:44;30.17;;;13.10;;
75746;SDS011;70632;52.232;21.038;2023-11-19T12:33:13;29.92;;;12.73;;
75746;SDS011;70632;52.232;21.038;2023-11-19T12:35:40;29.02;;;13.13;;
75746;SDS011;70632;52.232;21.038;2023-11-19T12:38:07;28.77;;;12.90;;
75746;SDS011;70632;52.232;21.038;2023-11-19T12:40:33;30.25;;;12.63;;
75746;SDS011;70632;52.232;21.038;2023-11-19T12:43:02;22.85;;;10.35;;
75746;SDS011;70632;52.232;21.038;2023-11-19T12:45:37;23.73;;;10.43;;
75746;SDS011;70632;52.232;21.038;2023-11-19T12:48:04;24.17;;;11.27;;
75746;SDS011;70632;52.232;21.038;2023-11-19T12:50:49;26.92;;;12.02;;
75746;SDS011;70632;52.232;21.038;2023-11-19T12:53:16;25.15;;;10.30;;
75746;SDS011;70632;52.232;21.038;2023-11-19T12:55:42;30.23;;;12.25;;
75746;SDS011;70632;52.232;21.038;2023-11-19T12:58:07;28.40;;;10.45;;
75746;SDS011;70632;52.232;21.038;2023-11-19T13:00:33;22.60;;;9.93;;
75746;SDS011;70632;52.232;21.038;2023-11-19T13:02:59;20.27;;;10.13;;
75746;SDS011;70632;52.232;21.038;2023-11-19T13:05:31;30.15;;;13.25;;
75746;SDS011;70632;52.232;21.038;2023-11-19T13:10:31;27.90;;;14.10;;
75746;SDS011;70632;52.232;21.038;2023-11-19T13:13:08;35.65;;;13.07;;
75746;SDS011;70632;52.232;21.038;2023-11-19T13:15:34;30.42;;;13.60;;
75746;SDS011;70632;52.232;21.038;2023-11-19T13:18:00;33.10;;;14.35;;
75746;SDS011;70632;52.232;21.038;2023-11-19T13:20:28;31.75;;;12.65;;
75746;SDS011;70632;52.232;21.038;2023-11-19T13:22:54;36.47;;;12.77;;
75746;SDS011;70632;52.232;21.038;2023-11-19T13:25:22;31.38;;;12.35;;
75746;SDS011;70632;52.232;21.038;2023-11-19T13:27:48;28.73;;;12.48;;
75746;SDS011;70632;52.232;21.038;2023-11-19T13:30:14;29.25;;;12.52;;
75746;SDS011;70632;52.232;21.038;2023-11-19T13:32:45;30.67;;;13.07;;
75746;SDS011;70632;52.232;21.038;2023-11-19T13:35:13;35.08;;;13.18;;
75746;SDS011;70632;52.232;21.038;2023-11-19T13:37:39;31.88;;;13.40;;
75746;SDS011;70632;52.232;21.038;2023-11-19T13:40:07;30.85;;;12.55;;
75746;SDS011;70632;52.232;21.038;2023-11-19T13:42:38;28.77;;;12.63;;
75746;SDS011;70632;52.232;21.038;2023-11-19T13:45:08;33.45;;;13.38;;
75746;SDS011;70632;52.232;21.038;2023-11-19T13:47:42;19.92;;;9.57;;
75746;SDS011;70632;52.232;21.038;2023-11-19T13:50:09;25.98;;;10.85;;
75746;SDS011;70632;52.232;21.038;2023-11-19T13:52:45;29.58;;;12.32;;
75746;SDS011;70632;52.232;21.038;2023-11-19T13:55:13;30.38;;;13.40;;
75746;SDS011;70632;52.232;21.038;2023-11-19T13:57:40;32.97;;;12.85;;
75746;SDS011;70632;52.232;21.038;2023-11-19T14:00:08;29.58;;;12.57;;
75746;SDS011;70632;52.232;21.038;2023-11-19T14:02:38;29.08;;;12.07;;
75746;SDS011;70632;52.232;21.038;2023-11-19T14:05:06;35.10;;;14.07;;
75746;SDS011;70632;52.232;21.038;2023-11-19T14:07:32;34.50;;;13.57;;
75746;SDS011;70632;52.232;21.038;2023-11-19T14:09:58;35.03;;;14.70;;
75746;SDS011;70632;52.232;21.038;2023-11-19T14:12:24;31.63;;;15.13;;
75746;SDS011;70632;52.232;21.038;2023-11-19T14:14:50;31.58;;;12.60;;
75746;SDS011;70632;52.232;21.038;2023-11-19T14:17:16;31.50;;;13.65;;
75746;SDS011;70632;52.232;21.038;2023-11-19T14:19:42;35.72;;;14.20;;
75746;SDS011;70632;52.232;21.038;2023-11-19T14:22:08;29.58;;;11.95;;
75746;SDS011;70632;52.232;21.038;2023-11-19T14:24:34;35.13;;;13.00;;
75746;SDS011;70632;52.232;21.038;2023-11-19T14:27:00;34.13;;;13.88;;
75746;SDS011;70632;52.232;21.038;2023-11-19T14:29:26;27.48;;;11.80;;
75746;SDS011;70632;52.232;21.038;2023-11-19T14:31:54;34.40;;;14.65;;
75746;SDS011;70632;52.232;21.038;2023-11-19T14:34:21;38.78;;;14.68;;
75746;SDS011;70632;52.232;21.038;2023-11-19T14:36:47;33.38;;;13.85;;
75746;SDS011;70632;52.232;21.038;2023-11-19T14:39:13;35.25;;;13.02;;
75746;SDS011;70632;52.232;21.038;2023-11-19T14:41:39;34.75;;;14.38;;
